YSDU Airport Information

Runway Information
Runway 05 Length 5604 ft width 148 ft
Elevation 935 ft Threshold 0 ft Heading 53
Runway 23 Length 5604 ft Width 148 ft
Elevation 903 ft Threshold 0 ft Heading 233
Runway 11 Length 3501 ft width 60 ft
Elevation 910 ft Threshold 0 ft Heading 118
Runway 29 Length 3501 ft Width 60 ft
Elevation 927 ft Threshold 0 ft Heading 298
Airport Frequencies
Type CTAF Name CTAF Frequency 134 MHZ
Type FSS Name MELBOURNE Frequency 123.9 MHZ
Airport Navaids
Type VOR-DME Name Dubbo Frequency 114400 KHZ
Type NDB Name Dubbo Frequency 251 KHZ
Airport Weather Information & NOTAM
ADDS - METARS form results

(2354 UTC 27 February 2020)
Data provider http://aviationweather.gov/metar/data/
 
METAR text: YSDU 272330Z AUTO 19010KT 9999 // NCD 22/04 Q1013 RF00.0/000.0
Conditions at: YSDU (DUBBO , AU) observed 2330 UTC 27 February 2020
Temperature: 22.0°C (72°F)
Dewpoint: 4.0°C (39°F) [RH = 31%]
Pressure (altimeter): 29.91 inches Hg (1013.0 mb)
Winds: from the S (190 degrees) at 12 MPH (10 knots; 5.1 m/s)
Visibility: 6 or more miles (10+ km)
Ceiling: at least 12,000 feet AGL
Clouds: sky clear below 12,000 feet AGL
Weather: no significant weather observed at this time

METAR text: YSDU 272300Z AUTO 16008KT 9999 // NCD 21/05 Q1013
Conditions at: YSDU (DUBBO , AU) observed 2300 UTC 27 February 2020
Temperature: 21.0°C (70°F)
Dewpoint: 5.0°C (41°F) [RH = 35%]
Pressure (altimeter): 29.91 inches Hg (1013.0 mb)
Winds: from the SSE (160 degrees) at 9 MPH (8 knots; 4.1 m/s)
Visibility: 6 or more miles (10+ km)
Ceiling: at least 12,000 feet AGL
Clouds: sky clear below 12,000 feet AGL
Weather: no significant weather observed at this time

Forecast for: YSDU (DUBBO , AU)
Text: TAF YSDU 272243Z 2800/2818 18011KT CAVOK
Forecast period: 0000 to 1100 UTC 28 February 2020
Forecast type: FROM: standard forecast or significant change
Winds: from the S (180 degrees) at 13 MPH (11 knots; 5.7 m/s)
Visibility: 6 or more miles 10+ km)
Ceiling: unknown
Clouds: missing
Weather: NSW  (no significant weather)
Text: FM281100 09012KT CAVOK
Forecast period: 1100 to 1800 UTC 28 February 2020
Forecast type: FROM: standard forecast or significant change
Winds: from the E (90 degrees) at 14 MPH (12 knots; 6.2 m/s)
Visibility: 6 or more miles 10+ km)
Ceiling: unknown
Clouds: missing
Weather: NSW  (no significant weather)

‚Äč